createdAt,value
2017-11-24T03:27:44.525Z,1005.33
2017-11-24T03:28:25.097Z,1005.3
2017-11-24T03:29:05.719Z,1005.32
2017-11-24T03:29:46.308Z,1005.3
2017-11-24T03:30:26.874Z,1005.28
2017-11-24T03:31:07.446Z,1005.29
2017-11-24T03:31:48.015Z,1005.33
2017-11-24T03:32:28.587Z,1005.28
2017-11-24T03:33:09.168Z,1005.3
2017-11-24T03:33:49.757Z,1005.33
2017-11-24T03:34:30.344Z,1005.36
2017-11-24T03:35:10.926Z,1005.33
2017-11-24T03:35:51.504Z,1005.38
2017-11-24T03:36:32.108Z,1005.36
2017-11-24T03:37:12.652Z,1005.41
2017-11-24T03:37:53.246Z,1005.39
2017-11-24T03:38:33.860Z,1005.38
2017-11-24T03:39:14.430Z,1005.36
2017-11-24T03:39:55.040Z,1005.35
2017-11-24T03:40:35.645Z,1005.31
2017-11-24T03:41:16.215Z,1005.31
2017-11-24T03:41:56.807Z,1005.29
2017-11-24T03:42:37.436Z,1005.29
2017-11-24T03:43:18.014Z,1005.3
2017-11-24T03:43:58.609Z,1005.28
2017-11-24T03:44:39.182Z,1005.26
2017-11-24T03:45:19.778Z,1005.26
2017-11-24T03:46:00.317Z,1005.26
2017-11-24T03:46:40.894Z,1005.27
2017-11-24T03:47:21.459Z,1005.25
2017-11-24T03:48:02.027Z,1005.25
2017-11-24T03:48:42.613Z,1005.23
2017-11-24T03:49:23.209Z,1005.18
2017-11-24T03:50:03.780Z,1005.18
2017-11-24T03:50:44.391Z,1005.19
2017-11-24T03:51:24.950Z,1005.15
2017-11-24T03:52:05.535Z,1005.19
2017-11-24T03:52:46.129Z,1005.18
2017-11-24T03:53:26.742Z,1005.18
2017-11-24T03:54:07.296Z,1005.2
2017-11-24T03:54:47.875Z,1005.19
2017-11-24T03:55:28.420Z,1005.15
2017-11-24T03:56:08.976Z,1005.16
2017-11-24T03:56:49.578Z,1005.17
2017-11-24T03:57:30.165Z,1005.15
2017-11-24T03:58:10.726Z,1005.19
2017-11-24T03:58:51.307Z,1005.22
2017-11-24T03:59:31.866Z,1005.13
2017-11-24T04:00:12.429Z,1005.17
2017-11-24T04:00:53.026Z,1005.14
2017-11-24T04:01:33.604Z,1005.1
2017-11-24T04:02:14.261Z,1005.12
2017-11-24T04:02:54.908Z,1005.12
2017-11-24T04:03:35.477Z,1005.09
2017-11-24T04:04:16.037Z,1005.11
2017-11-24T04:04:56.644Z,1005.14
2017-11-24T04:05:37.199Z,1005.09
2017-11-24T04:06:17.791Z,1005.08
2017-11-24T04:06:58.358Z,1005.08
2017-11-24T04:07:38.941Z,1005.09
2017-11-24T04:08:19.522Z,1005.09
2017-11-24T04:09:00.084Z,1005.1
2017-11-24T04:09:40.663Z,1005.1
2017-11-24T04:10:21.234Z,1005.13
2017-11-24T04:11:01.815Z,1005.1
2017-11-24T04:11:42.459Z,1005.09
2017-11-24T04:12:23.045Z,1005.07
2017-11-24T04:13:03.623Z,1005.05
2017-11-24T04:13:44.192Z,1005.05
2017-11-24T04:14:24.779Z,1005.02
2017-11-24T04:15:05.345Z,1004.99
2017-11-24T04:15:45.953Z,1004.95
2017-11-24T04:16:26.525Z,1004.96
2017-11-24T04:17:07.110Z,1004.87
2017-11-24T04:17:47.681Z,1004.82
2017-11-24T04:18:28.267Z,1004.77
2017-11-24T04:19:08.870Z,1004.78
2017-11-24T04:19:49.458Z,1004.77
2017-11-24T04:20:30.045Z,1004.83
2017-11-24T04:21:11.527Z,1004.83
2017-11-24T04:21:52.080Z,1004.81
2017-11-24T04:22:32.658Z,1004.83
2017-11-24T04:23:13.235Z,1004.78
2017-11-24T04:23:53.823Z,1004.8
2017-11-24T04:24:34.417Z,1004.75
2017-11-24T04:25:15.008Z,1004.78
2017-11-24T04:25:55.572Z,1004.78
2017-11-24T04:26:36.168Z,1004.73
2017-11-24T04:27:16.729Z,1004.75
2017-11-24T04:27:57.309Z,1004.75
2017-11-24T04:28:37.877Z,1004.72
2017-11-24T04:29:18.460Z,1004.74
2017-11-24T04:29:59.023Z,1004.76
2017-11-24T04:30:39.590Z,1004.76
2017-11-24T04:31:20.181Z,1004.77
2017-11-24T04:32:00.734Z,1004.81
2017-11-24T04:32:41.298Z,1004.81
2017-11-24T04:33:21.858Z,1004.84
2017-11-24T04:34:02.434Z,1004.83
2017-11-24T04:34:43.008Z,1004.89
2017-11-24T04:35:23.578Z,1004.82
2017-11-24T05:19:37.213Z,1004.58
2017-11-24T05:20:17.789Z,1004.56
2017-11-24T05:20:58.358Z,1004.55
2017-11-24T05:21:38.919Z,1004.5
2017-11-24T05:22:19.549Z,1004.5
2017-11-24T05:23:00.133Z,1004.46
2017-11-24T05:23:40.729Z,1004.48
2017-11-24T05:24:21.311Z,1004.43
2017-11-24T05:25:01.902Z,1004.36
2017-11-24T05:25:42.473Z,1004.31
2017-11-24T05:26:23.081Z,1004.32
2017-11-24T05:27:03.658Z,1004.26
2017-11-24T05:27:44.229Z,1004.24
2017-11-24T05:28:24.797Z,1004.23
2017-11-24T05:29:05.380Z,1004.15
2017-11-24T05:29:45.954Z,1004.17
2017-11-24T05:30:26.535Z,1004.14
2017-11-24T05:31:07.105Z,1004.11
2017-11-24T05:31:47.664Z,1004.14
2017-11-24T05:32:28.247Z,1004.16
2017-11-24T05:33:08.814Z,1004.18
2017-11-24T05:33:49.382Z,1004.15
2017-11-24T05:34:30.000Z,1004.19
2017-11-24T05:35:10.573Z,1004.15
2017-11-24T05:35:51.154Z,1004.16
2017-11-24T05:36:31.724Z,1004.17
2017-11-24T05:37:12.306Z,1004.16
2017-11-24T05:37:52.889Z,1004.17
2017-11-24T05:38:33.466Z,1004.15
2017-11-24T05:39:14.085Z,1004.2
2017-11-24T05:39:54.676Z,1004.22
2017-11-24T05:40:35.311Z,1004.25
2017-11-24T05:41:15.913Z,1004.24
2017-11-24T05:41:56.497Z,1004.3
2017-11-24T05:42:37.067Z,1004.32
2017-11-24T05:43:17.617Z,1004.31
2017-11-24T05:43:58.186Z,1004.32
2017-11-24T05:44:38.753Z,1004.37
2017-11-24T05:45:19.319Z,1004.37
2017-11-24T05:45:59.909Z,1004.36
2017-11-24T05:46:40.496Z,1004.34
2017-11-24T05:47:21.055Z,1004.33
2017-11-24T05:48:01.627Z,1004.37
2017-11-24T05:48:42.202Z,1004.31
2017-11-24T05:49:22.764Z,1004.33
2017-11-24T05:50:03.343Z,1004.32
2017-11-24T05:50:43.915Z,1004.35
2017-11-24T05:51:24.545Z,1004.32
2017-11-24T05:53:53.624Z,1004.37
2017-11-24T05:54:34.227Z,1004.41
2017-11-24T05:55:14.827Z,1004.35
2017-11-24T05:55:55.432Z,1004.4
2017-11-24T05:56:36.000Z,1004.36
2017-11-24T05:57:16.574Z,1004.41
2017-11-24T05:57:57.160Z,1004.43
2017-11-24T05:58:37.721Z,1004.45
2017-11-24T05:59:18.313Z,1004.47
2017-11-24T05:59:58.894Z,1004.5
2017-11-24T06:00:39.462Z,1004.55
2017-11-24T06:01:20.050Z,1004.57
2017-11-24T06:02:00.639Z,1004.53
2017-11-24T06:02:41.218Z,1004.53
2017-11-24T06:03:21.807Z,1004.53
2017-11-24T06:04:02.399Z,1004.49
2017-11-24T06:04:42.981Z,1004.45
2017-11-24T06:05:23.575Z,1004.43
2017-11-24T06:06:04.165Z,1004.44
2017-11-24T06:06:44.738Z,1004.4
2017-11-24T06:07:25.317Z,1004.34
2017-11-24T06:08:05.914Z,1004.37
2017-11-24T06:08:51.473Z,1004.35
2017-11-24T06:09:32.033Z,1004.27
2017-11-24T06:10:12.619Z,1004.28
2017-11-24T06:10:53.209Z,1004.29
2017-11-24T06:11:33.823Z,1004.31
2017-11-24T06:12:15.208Z,1004.34
2017-11-24T06:12:55.812Z,1004.3
2017-11-24T06:13:36.506Z,1004.28
2017-11-24T06:14:17.076Z,1004.31
2017-11-24T06:14:57.656Z,1004.29
2017-11-24T06:15:38.230Z,1004.35
2017-11-24T06:16:18.987Z,1004.26
2017-11-24T06:16:59.567Z,1004.26
2017-11-24T06:17:40.152Z,1004.26
2017-11-24T06:18:20.727Z,1004.24
2017-11-24T06:19:01.309Z,1004.26
2017-11-24T06:19:41.892Z,1004.21
2017-11-24T06:20:22.462Z,1004.13
2017-11-24T06:21:03.041Z,1004.17
2017-11-24T06:21:43.618Z,1004.13
2017-11-24T06:22:24.201Z,1004.1
2017-11-24T06:23:04.769Z,1004.08
2017-11-24T06:23:45.375Z,1004.11
2017-11-24T06:24:25.956Z,1004.05
2017-11-24T06:25:06.624Z,1004.02
2017-11-24T06:25:47.203Z,1004.03
2017-11-24T06:26:27.762Z,1004.05
2017-11-24T06:27:08.346Z,1004.05
2017-11-24T06:27:48.920Z,1004.05
2017-11-24T06:28:29.522Z,1004.06
2017-11-24T06:29:10.090Z,1004.06
2017-11-24T06:29:50.725Z,1004.02
2017-11-24T06:30:31.320Z,1004.05
2017-11-24T06:31:11.883Z,1004.06
2017-11-24T06:31:52.467Z,1003.98
2017-11-24T06:32:33.070Z,1004.06
2017-11-24T06:33:13.666Z,1003.97
2017-11-24T06:33:54.250Z,1003.92
2017-11-24T06:34:34.833Z,1003.92
2017-11-24T06:35:15.399Z,1003.91
2017-11-24T06:35:55.959Z,1003.9
2017-11-24T06:36:36.529Z,1003.91
2017-11-24T06:37:17.108Z,1003.89
2017-11-24T06:37:57.720Z,1003.93
2017-11-24T06:38:38.354Z,1003.92
2017-11-24T06:39:18.931Z,1003.94
2017-11-24T06:39:59.509Z,1003.92
2017-11-24T06:40:40.081Z,1003.95
2017-11-24T06:41:20.666Z,1003.89
2017-11-24T06:42:01.253Z,1003.89
2017-11-24T06:42:41.843Z,1003.85
2017-11-24T06:43:22.418Z,1003.87
2017-11-24T06:44:03.077Z,1003.88
2017-11-24T06:44:43.631Z,1003.86
2017-11-24T06:45:24.227Z,1003.86
2017-11-24T06:46:04.781Z,1003.82
2017-11-24T06:46:45.366Z,1003.86
2017-11-24T06:47:25.955Z,1003.84
2017-11-24T06:48:06.539Z,1003.87
2017-11-24T06:48:47.182Z,1003.86
2017-11-24T06:49:27.765Z,1003.85
2017-11-24T06:50:08.367Z,1003.9
2017-11-24T06:50:48.932Z,1003.88
2017-11-24T06:51:29.498Z,1003.95
2017-11-24T06:52:10.074Z,1003.98
2017-11-24T06:52:50.652Z,1003.94
2017-11-24T06:53:31.232Z,1003.99
2017-11-24T06:54:11.813Z,1003.9
2017-11-24T06:54:52.380Z,1003.93
2017-11-24T06:55:32.945Z,1003.89
2017-11-24T06:56:13.497Z,1003.84
2017-11-24T06:56:54.081Z,1003.84
2017-11-24T06:57:34.655Z,1003.82
2017-11-24T06:58:15.256Z,1003.79
2017-11-24T06:58:55.829Z,1003.78
2017-11-24T06:59:36.392Z,1003.78
2017-11-24T07:00:16.958Z,1003.81
2017-11-24T07:00:57.535Z,1003.81
2017-11-24T07:01:38.204Z,1003.78
2017-11-24T07:02:18.796Z,1003.73
2017-11-24T07:02:59.366Z,1003.74
2017-11-24T07:03:39.937Z,1003.72
2017-11-24T07:04:20.541Z,1003.71
2017-11-24T07:05:01.118Z,1003.67
2017-11-24T07:05:41.709Z,1003.69
2017-11-24T07:06:22.319Z,1003.67
2017-11-24T07:07:02.848Z,1003.68
2017-11-24T07:07:43.438Z,1003.66
2017-11-24T07:08:24.010Z,1003.67
2017-11-24T07:09:04.573Z,1003.63
2017-11-24T07:09:45.161Z,1003.61
2017-11-24T07:10:25.752Z,1003.64
2017-11-24T07:11:06.319Z,1003.57
2017-11-24T07:11:46.948Z,1003.62
2017-11-24T07:12:27.523Z,1003.59
2017-11-24T07:13:08.089Z,1003.55
2017-11-24T07:13:48.646Z,1003.51
2017-11-24T07:14:29.753Z,1003.52
2017-11-24T07:15:10.357Z,1003.55
2017-11-24T07:15:50.939Z,1003.56
2017-11-24T07:16:31.546Z,1003.56
2017-11-24T07:17:12.126Z,1003.56
2017-11-24T07:17:52.728Z,1003.57
2017-11-24T07:18:33.340Z,1003.52
2017-11-24T07:19:13.887Z,1003.5
2017-11-24T07:19:54.449Z,1003.47
2017-11-24T07:20:35.068Z,1003.48
2017-11-24T07:21:15.629Z,1003.45
2017-11-24T07:21:56.214Z,1003.41
2017-11-24T07:22:36.759Z,1003.46
2017-11-24T07:23:17.326Z,1003.41
2017-11-24T07:23:57.906Z,1003.39
2017-11-24T07:24:38.462Z,1003.3
2017-11-24T07:25:19.055Z,1003.3
2017-11-24T07:25:59.624Z,1003.29
2017-11-24T07:26:40.210Z,1003.23
2017-11-24T07:27:20.809Z,1003.22
2017-11-24T07:28:01.352Z,1003.21
2017-11-24T07:28:41.899Z,1003.21
2017-11-24T07:29:22.462Z,1003.27
2017-11-24T07:30:03.039Z,1003.27
2017-11-24T07:30:43.605Z,1003.24
2017-11-24T07:31:24.219Z,1003.24
2017-11-24T07:32:04.835Z,1003.27
2017-11-24T07:32:45.399Z,1003.21
2017-11-24T07:33:25.968Z,1003.16
2017-11-24T07:34:06.539Z,1003.15
2017-11-24T07:34:47.117Z,1003.25
2017-11-24T07:35:27.662Z,1003.18
2017-11-24T07:36:08.270Z,1003.15
2017-11-24T07:36:48.834Z,1003.16
2017-11-24T07:37:29.405Z,1003.19
2017-11-24T07:38:09.975Z,1003.14
2017-11-24T07:38:50.551Z,1003.22
2017-11-24T07:39:31.128Z,1003.18
2017-11-24T07:40:11.719Z,1003.21
2017-11-24T07:40:52.324Z,1003.18
2017-11-24T07:41:32.899Z,1003.18
2017-11-24T07:42:13.471Z,1003.2
2017-11-24T07:42:54.029Z,1003.23
2017-11-24T07:43:34.630Z,1003.18
2017-11-24T07:44:15.181Z,1003.25
2017-11-24T07:44:55.768Z,1003.24
2017-11-24T07:45:36.325Z,1003.22
2017-11-24T07:46:16.893Z,1003.14
2017-11-24T07:46:57.456Z,1003.2
2017-11-24T07:47:38.108Z,1003.17
2017-11-24T07:48:18.684Z,1003.1
2017-11-24T07:48:59.234Z,1003.09
2017-11-24T07:49:39.788Z,1003.08
2017-11-24T07:50:20.376Z,1003.03
2017-11-24T07:51:00.934Z,1003.03
2017-11-24T07:51:41.559Z,1002.99
2017-11-24T07:52:22.120Z,1002.99
2017-11-24T07:53:02.694Z,1002.98
2017-11-24T07:53:43.300Z,1002.94
2017-11-24T07:54:23.854Z,1002.95
2017-11-24T07:55:04.428Z,1002.97
2017-11-24T07:55:44.992Z,1002.94
2017-11-24T07:56:25.566Z,1002.92
2017-11-24T07:57:06.153Z,1002.93
2017-11-24T07:57:46.791Z,1002.9
2017-11-24T07:58:27.360Z,1002.9
2017-11-24T07:59:07.948Z,1002.88
2017-11-24T07:59:48.520Z,1002.89
2017-11-24T08:00:29.107Z,1002.86
2017-11-24T08:01:09.666Z,1002.83
2017-11-24T08:01:50.255Z,1002.83
2017-11-24T08:02:30.889Z,1002.82
2017-11-24T08:03:11.456Z,1002.85
2017-11-24T08:03:52.033Z,1002.85
2017-11-24T08:04:32.601Z,1002.81
2017-11-24T08:05:13.182Z,1002.8
2017-11-24T08:05:53.752Z,1002.76
2017-11-24T08:06:34.326Z,1002.73
2017-11-24T08:07:14.949Z,1002.67
2017-11-24T08:07:55.550Z,1002.64
2017-11-24T08:08:36.163Z,1002.65
2017-11-24T08:09:16.726Z,1002.61
2017-11-24T08:09:57.319Z,1002.6
2017-11-24T08:10:37.891Z,1002.58
2017-11-24T08:11:18.472Z,1002.58
2017-11-24T08:11:59.099Z,1002.56
2017-11-24T08:12:39.686Z,1002.58
2017-11-24T08:13:20.280Z,1002.57
2017-11-24T08:14:00.869Z,1002.67
2017-11-24T08:14:41.481Z,1002.69
2017-11-24T08:15:22.043Z,1002.7
2017-11-24T08:16:02.623Z,1002.7
2017-11-24T08:16:43.195Z,1002.73
2017-11-24T08:17:23.768Z,1002.76
2017-11-24T08:18:04.349Z,1002.73
2017-11-24T08:18:44.942Z,1002.77
2017-11-24T08:19:25.517Z,1002.79
2017-11-24T08:20:06.099Z,1002.78
2017-11-24T08:20:46.703Z,1002.78
2017-11-24T08:21:27.259Z,1002.76
2017-11-24T08:22:07.876Z,1002.78
2017-11-24T08:22:48.500Z,1002.75
2017-11-24T08:23:29.062Z,1002.69
2017-11-24T08:24:09.651Z,1002.64
2017-11-24T08:24:50.238Z,1002.63
2017-11-24T08:25:30.824Z,1002.68
2017-11-24T08:26:11.399Z,1002.66
2017-11-24T08:26:51.964Z,1002.67
2017-11-24T08:27:32.575Z,1002.67
2017-11-24T08:28:13.155Z,1002.6
2017-11-24T08:28:53.768Z,1002.62
2017-11-24T08:29:34.428Z,1002.6
2017-11-24T08:30:14.987Z,1002.6
2017-11-24T08:30:55.585Z,1002.64
2017-11-24T08:31:36.214Z,1002.61
2017-11-24T08:32:16.832Z,1002.56
2017-11-24T08:32:57.450Z,1002.57
2017-11-24T08:33:38.033Z,1002.54
2017-11-24T08:34:18.630Z,1002.55
2017-11-24T08:34:59.185Z,1002.53
2017-11-24T08:35:39.766Z,1002.47
2017-11-24T08:36:20.342Z,1002.51
2017-11-24T08:37:00.937Z,1002.51
2017-11-24T08:37:41.498Z,1002.54
2017-11-24T08:38:22.075Z,1002.57
2017-11-24T08:39:02.635Z,1002.58
2017-11-24T08:39:43.201Z,1002.51
2017-11-24T08:40:23.810Z,1002.58
2017-11-24T08:41:04.379Z,1002.53
2017-11-24T08:41:44.949Z,1002.55
2017-11-24T08:42:25.559Z,1002.43
2017-11-24T08:43:06.184Z,1002.4
2017-11-24T08:43:46.781Z,1002.49
2017-11-24T08:44:27.352Z,1002.48
2017-11-24T08:45:07.943Z,1002.51
2017-11-24T08:45:48.581Z,1002.51
2017-11-24T08:46:29.146Z,1002.51
2017-11-24T08:47:09.739Z,1002.54
2017-11-24T08:47:50.317Z,1002.53
2017-11-24T08:48:30.926Z,1002.54
2017-11-24T08:49:11.491Z,1002.59
2017-11-24T08:49:52.072Z,1002.55
2017-11-24T08:50:32.663Z,1002.54
2017-11-24T08:51:13.238Z,1002.48
2017-11-24T08:51:53.812Z,1002.46
2017-11-24T08:52:34.400Z,1002.47
2017-11-24T08:53:14.979Z,1002.49
2017-11-24T08:53:55.576Z,1002.46
2017-11-24T08:54:36.171Z,1002.45
2017-11-24T08:55:16.762Z,1002.45
2017-11-24T08:55:57.356Z,1002.46
2017-11-24T08:56:37.911Z,1002.48
2017-11-24T08:57:18.479Z,1002.41
2017-11-24T08:57:59.061Z,1002.43
2017-11-24T08:58:39.648Z,1002.44
2017-11-24T08:59:20.216Z,1002.4
2017-11-24T09:00:00.803Z,1002.36
2017-11-24T09:00:41.388Z,1002.28
2017-11-24T09:01:21.974Z,1002.25
2017-11-24T09:02:02.547Z,1002.21
2017-11-24T09:02:43.129Z,1002.21
2017-11-24T09:03:23.707Z,1002.19
2017-11-24T09:04:04.347Z,1002.21
2017-11-24T09:04:44.925Z,1002.18
2017-11-24T09:05:25.504Z,1002.15
2017-11-24T09:06:06.065Z,1002.09
2017-11-24T09:06:46.661Z,1002.09
2017-11-24T09:07:27.199Z,1002.07
2017-11-24T09:08:07.783Z,1002.08
2017-11-24T09:08:48.374Z,1002.06
2017-11-24T09:09:28.950Z,1002.06
2017-11-24T09:10:09.541Z,1002.07
2017-11-24T09:10:50.114Z,1002.12
2017-11-24T09:11:30.704Z,1002.04
2017-11-24T09:12:11.290Z,1002.03
2017-11-24T09:12:51.853Z,1002.12
2017-11-24T09:13:32.458Z,1002.04
2017-11-24T09:14:13.052Z,1002.06
2017-11-24T09:14:53.670Z,1002.09
2017-11-24T09:15:34.286Z,1002.09
2017-11-24T09:16:14.904Z,1002.03
2017-11-24T09:16:55.483Z,1002.13
2017-11-24T09:17:36.062Z,1002.05
2017-11-24T09:18:16.697Z,1002.03
2017-11-24T09:18:57.279Z,1002.08
2017-11-24T09:19:37.876Z,1002.06
2017-11-24T09:20:18.477Z,1002.05
2017-11-24T09:20:59.066Z,1002.07
2017-11-24T09:21:39.638Z,1002.11
2017-11-24T09:22:20.297Z,1002.18
2017-11-24T09:23:00.895Z,1002.08
2017-11-24T09:23:41.470Z,1002.1
2017-11-24T09:24:22.038Z,1002.05
2017-11-24T09:25:02.658Z,1002.13
2017-11-24T09:25:43.219Z,1002.13
2017-11-24T09:26:23.793Z,1002.06
2017-11-24T09:27:04.351Z,1002.1
2017-11-24T09:27:44.940Z,1002.12
2017-11-24T09:28:25.517Z,1002.12
2017-11-24T09:29:06.089Z,1002.16
2017-11-24T09:29:46.669Z,1002.09
2017-11-24T09:30:27.245Z,1002.16
2017-11-24T09:31:07.830Z,1002.14
2017-11-24T09:31:48.425Z,1002.09
2017-11-24T09:32:29.002Z,1001.98
2017-11-24T09:33:09.585Z,1002
2017-11-24T09:33:50.201Z,1002
2017-11-24T09:34:30.784Z,1002
2017-11-24T09:35:11.349Z,1002.01
2017-11-24T09:35:51.924Z,1002.04
2017-11-24T09:36:32.531Z,1002.01
2017-11-24T09:37:13.131Z,1002.03
2017-11-24T09:37:53.722Z,1002
2017-11-24T09:38:34.271Z,1001.96
2017-11-24T09:39:14.877Z,1001.94
2017-11-24T09:39:55.460Z,1001.92
2017-11-24T09:40:36.049Z,1001.96
2017-11-24T09:41:16.646Z,1001.93
2017-11-24T09:41:57.220Z,1001.89
2017-11-24T09:42:37.808Z,1001.92
2017-11-24T09:43:18.392Z,1001.85
2017-11-24T09:43:58.963Z,1001.91
2017-11-24T09:44:39.534Z,1001.93
2017-11-24T09:45:20.139Z,1001.93
2017-11-24T09:46:00.700Z,1001.88
2017-11-24T09:46:41.300Z,1001.88
2017-11-24T09:47:21.887Z,1001.96
2017-11-24T09:48:02.461Z,1001.91
2017-11-24T09:48:43.054Z,1001.87
2017-11-24T09:49:23.642Z,1001.84
2017-11-24T09:50:04.215Z,1001.86
2017-11-24T09:50:44.795Z,1001.88
2017-11-24T09:51:25.381Z,1001.89
2017-11-24T09:52:05.951Z,1001.98
2017-11-24T09:52:46.582Z,1001.91
2017-11-24T09:53:27.122Z,1001.85
2017-11-24T09:54:07.697Z,1001.84
2017-11-24T09:54:48.324Z,1001.85
2017-11-24T09:55:28.890Z,1001.83
2017-11-24T09:56:09.468Z,1001.77
2017-11-24T09:56:50.126Z,1001.84
2017-11-24T09:57:30.696Z,1001.74
2017-11-24T09:58:11.284Z,1001.75
2017-11-24T09:58:51.867Z,1001.81
2017-11-24T09:59:32.444Z,1001.76
2017-11-24T10:00:13.044Z,1001.73
2017-11-24T10:00:53.616Z,1001.76
2017-11-24T10:01:34.215Z,1001.78
2017-11-24T10:02:14.790Z,1001.77
2017-11-24T10:02:55.383Z,1001.73
2017-11-24T10:03:35.980Z,1001.65
2017-11-24T10:04:16.567Z,1001.68
2017-11-24T10:04:57.146Z,1001.73
2017-11-24T10:05:37.804Z,1001.66
2017-11-24T10:06:18.429Z,1001.66
2017-11-24T10:06:59.072Z,1001.68
2017-11-24T10:07:39.658Z,1001.66
2017-11-24T10:08:20.277Z,1001.7
2017-11-24T10:09:00.896Z,1001.6
2017-11-24T10:09:41.457Z,1001.62
2017-11-24T10:10:22.024Z,1001.62
2017-11-24T10:11:02.614Z,1001.65
2017-11-24T10:11:43.206Z,1001.62
2017-11-24T10:12:23.780Z,1001.59
2017-11-24T10:13:04.405Z,1001.5
2017-11-24T10:13:44.987Z,1001.55
2017-11-24T10:14:25.578Z,1001.58
2017-11-24T10:15:06.143Z,1001.51
2017-11-24T10:15:46.716Z,1001.52
2017-11-24T10:16:27.301Z,1001.53
2017-11-24T10:17:07.869Z,1001.45
2017-11-24T10:17:48.485Z,1001.45
2017-11-24T10:18:29.119Z,1001.42
2017-11-24T10:19:09.747Z,1001.47
2017-11-24T10:19:50.345Z,1001.49
2017-11-24T10:20:30.896Z,1001.46
2017-11-24T10:21:11.477Z,1001.47
2017-11-24T10:21:52.053Z,1001.52
2017-11-24T10:22:32.677Z,1001.51
2017-11-24T10:23:13.273Z,1001.53
2017-11-24T10:23:53.864Z,1001.54
2017-11-24T10:24:34.434Z,1001.52
2017-11-24T10:25:15.017Z,1001.54
2017-11-24T10:25:55.572Z,1001.55
2017-11-24T10:26:36.154Z,1001.55
2017-11-24T10:27:16.724Z,1001.49
2017-11-24T10:27:57.295Z,1001.65
2017-11-24T10:28:37.928Z,1001.61
2017-11-24T10:29:18.491Z,1001.6
2017-11-24T10:29:59.073Z,1001.54
2017-11-24T10:30:39.653Z,1001.44
2017-11-24T10:31:20.258Z,1001.44
2017-11-24T10:32:00.842Z,1001.45
2017-11-24T10:32:41.402Z,1001.41
2017-11-24T10:33:21.993Z,1001.47
2017-11-24T10:34:02.565Z,1001.44
2017-11-24T10:34:43.128Z,1001.43
2017-11-24T10:35:23.710Z,1001.39
2017-11-24T10:36:04.311Z,1001.38
2017-11-24T10:36:44.877Z,1001.37
2017-11-24T10:37:25.501Z,1001.38
2017-11-24T10:38:06.082Z,1001.42
2017-11-24T10:38:46.705Z,1001.4
2017-11-24T10:39:27.278Z,1001.38
2017-11-24T10:40:07.885Z,1001.43
2017-11-24T10:40:48.492Z,1001.53
2017-11-24T10:41:29.043Z,1001.41
2017-11-24T10:42:09.657Z,1001.4
2017-11-24T10:42:50.257Z,1001.41
2017-11-24T10:43:30.821Z,1001.37
2017-11-24T10:44:11.390Z,1001.4
2017-11-24T10:44:51.995Z,1001.37
2017-11-24T10:45:32.620Z,1001.38
2017-11-24T10:46:13.206Z,1001.47
2017-11-24T10:46:53.782Z,1001.46
2017-11-24T10:47:34.380Z,1001.37
2017-11-24T10:48:14.953Z,1001.43
2017-11-24T10:48:55.538Z,1001.41
2017-11-24T10:49:36.121Z,1001.39
2017-11-24T10:50:16.702Z,1001.4
2017-11-24T10:50:57.328Z,1001.4
2017-11-24T10:51:37.910Z,1001.4
2017-11-24T10:52:18.484Z,1001.43
2017-11-24T10:52:59.088Z,1001.44
2017-11-24T10:53:39.661Z,1001.36
2017-11-24T10:54:20.288Z,1001.54
2017-11-24T10:55:00.871Z,1001.45
2017-11-24T10:55:41.460Z,1001.47
2017-11-24T10:56:22.041Z,1001.48
2017-11-24T10:57:02.638Z,1001.49
2017-11-24T10:57:43.282Z,1001.54
2017-11-24T10:58:23.834Z,1001.46
2017-11-24T10:59:04.426Z,1001.5
2017-11-24T10:59:44.992Z,1001.46
2017-11-24T11:00:25.607Z,1001.46
2017-11-24T11:01:06.171Z,1001.47
2017-11-24T11:01:46.757Z,1001.53
2017-11-24T11:02:27.350Z,1001.47
2017-11-24T11:03:08.009Z,1001.41
2017-11-24T11:03:48.587Z,1001.51
2017-11-24T11:04:29.199Z,1001.52
2017-11-24T11:05:09.888Z,1001.45
2017-11-24T11:05:50.459Z,1001.44
2017-11-24T11:06:31.022Z,1001.47
2017-11-24T11:07:11.630Z,1001.46
2017-11-24T11:07:52.231Z,1001.43
2017-11-24T11:08:32.847Z,1001.42
2017-11-24T11:09:13.445Z,1001.5
2017-11-24T11:09:54.009Z,1001.48
2017-11-24T11:10:34.576Z,1001.47
2017-11-24T11:11:15.149Z,1001.48
2017-11-24T11:11:55.727Z,1001.43
2017-11-24T11:12:36.289Z,1001.49
2017-11-24T11:13:16.893Z,1001.54
2017-11-24T11:13:57.479Z,1001.47
2017-11-24T11:14:38.097Z,1001.52
2017-11-24T11:15:18.656Z,1001.55
2017-11-24T11:15:59.279Z,1001.53
2017-11-24T11:16:39.841Z,1001.54
2017-11-24T11:17:20.415Z,1001.57
2017-11-24T11:18:00.986Z,1001.57
2017-11-24T11:18:41.560Z,1001.53
2017-11-24T11:19:22.129Z,1001.6
2017-11-24T11:20:02.729Z,1001.58
2017-11-24T11:20:43.309Z,1001.58
2017-11-24T11:21:23.883Z,1001.57
2017-11-24T11:22:04.472Z,1001.54
2017-11-24T11:22:45.049Z,1001.6
2017-11-24T11:23:25.614Z,1001.54
2017-11-24T11:24:06.185Z,1001.62
2017-11-24T11:24:46.773Z,1001.61
2017-11-24T11:25:27.356Z,1001.64
2017-11-24T11:26:07.960Z,1001.6
2017-11-24T11:26:48.538Z,1001.6
2017-11-24T11:27:29.143Z,1001.62
2017-11-24T11:28:09.821Z,1001.59
2017-11-24T11:28:50.444Z,1001.52
2017-11-24T11:29:31.049Z,1001.53
2017-11-24T11:30:11.643Z,1001.5
2017-11-24T11:30:52.239Z,1001.51
2017-11-24T11:31:32.820Z,1001.52
2017-11-24T11:32:13.405Z,1001.61
2017-11-24T11:32:54.050Z,1001.64
2017-11-24T11:33:34.640Z,1001.65
2017-11-24T11:34:15.220Z,1001.6
2017-11-24T11:34:55.837Z,1001.62
2017-11-24T11:35:36.390Z,1001.56
2017-11-24T11:36:16.975Z,1001.57
2017-11-24T11:36:57.563Z,1001.57
2017-11-24T11:37:38.164Z,1001.53
2017-11-24T11:38:18.737Z,1001.62
2017-11-24T11:38:59.317Z,1001.55
2017-11-24T11:39:39.906Z,1001.57
2017-11-24T11:40:20.508Z,1001.54
2017-11-24T11:41:01.118Z,1001.56
2017-11-24T11:41:41.741Z,1001.54
2017-11-24T11:42:22.290Z,1001.52
2017-11-24T11:43:02.859Z,1001.59
2017-11-24T11:43:43.475Z,1001.58
2017-11-24T11:44:24.051Z,1001.57
2017-11-24T11:45:04.640Z,1001.58
2017-11-24T11:45:45.218Z,1001.59
2017-11-24T11:46:25.834Z,1001.58
2017-11-24T11:47:06.412Z,1001.56
2017-11-24T11:47:46.983Z,1001.5
2017-11-24T11:48:27.578Z,1001.49
2017-11-24T11:49:08.186Z,1001.5
2017-11-24T11:49:48.743Z,1001.53
2017-11-24T11:50:29.336Z,1001.51
2017-11-24T11:51:09.898Z,1001.48
2017-11-24T11:51:50.471Z,1001.45
2017-11-24T11:52:31.096Z,1001.49
2017-11-24T11:53:11.679Z,1001.5
2017-11-24T11:53:52.288Z,1001.44
2017-11-24T11:54:32.861Z,1001.48
2017-11-24T11:55:13.453Z,1001.6
2017-11-24T11:55:54.041Z,1001.56
2017-11-24T11:56:34.614Z,1001.53
2017-11-24T11:57:15.189Z,1001.51
2017-11-24T11:57:55.763Z,1001.53
2017-11-24T11:58:36.349Z,1001.52
2017-11-24T11:59:16.952Z,1001.6
2017-11-24T11:59:57.547Z,1001.64
2017-11-24T12:00:38.124Z,1001.64
2017-11-24T12:01:18.772Z,1001.65
2017-11-24T12:01:59.335Z,1001.64
2017-11-24T12:02:39.908Z,1001.67
2017-11-24T12:03:20.514Z,1001.63
2017-11-24T12:04:01.082Z,1001.59
2017-11-24T12:04:41.668Z,1001.6
2017-11-24T12:05:22.263Z,1001.62
2017-11-24T12:06:02.829Z,1001.58
2017-11-24T12:06:43.416Z,1001.57
2017-11-24T12:07:24.035Z,1001.65
2017-11-24T12:08:04.622Z,1001.63
2017-11-24T12:08:45.239Z,1001.57
2017-11-24T12:09:25.829Z,1001.6
2017-11-24T12:10:06.392Z,1001.58
2017-11-24T12:10:46.983Z,1001.56
2017-11-24T12:11:27.589Z,1001.6
2017-11-24T12:12:08.165Z,1001.55
2017-11-24T12:12:48.787Z,1001.65
2017-11-24T12:13:29.377Z,1001.62
2017-11-24T12:14:09.955Z,1001.6
2017-11-24T12:14:50.588Z,1001.59
2017-11-24T12:15:31.151Z,1001.67
2017-11-24T12:16:11.749Z,1001.65
2017-11-24T12:16:52.350Z,1001.64
2017-11-24T12:17:32.944Z,1001.71
2017-11-24T12:18:13.560Z,1001.67
2017-11-24T12:18:54.147Z,1001.68
2017-11-24T12:19:34.708Z,1001.64
2017-11-24T12:20:15.292Z,1001.67
2017-11-24T12:20:55.910Z,1001.64
2017-11-24T12:21:36.507Z,1001.68
2017-11-24T12:22:17.113Z,1001.6
2017-11-24T12:22:57.706Z,1001.62
2017-11-24T12:23:38.325Z,1001.67
2017-11-24T12:24:18.909Z,1001.68
2017-11-24T12:24:59.553Z,1001.66
2017-11-24T12:25:40.128Z,1001.71